sensor_id;sensor_type;location;lat;lon;timestamp;pressure;altitude;pressure_sealevel;temperature;humidity
75196;BME280;63773;42.282;22.782;2023-06-05T00:01:54;96899.00;;;18.34;75.29
75196;BME280;63773;42.282;22.782;2023-06-05T00:04:19;96856.94;;;17.95;75.82
75196;BME280;63773;42.282;22.782;2023-06-05T00:06:46;96885.66;;;17.99;76.45
75196;BME280;63773;42.282;22.782;2023-06-05T00:09:12;96876.84;;;17.78;77.38
75196;BME280;63773;42.282;22.782;2023-06-05T00:11:39;96897.78;;;17.84;77.19
75196;BME280;63773;42.282;22.782;2023-06-05T00:14:04;96881.06;;;17.70;77.50
75196;BME280;63773;42.282;22.782;2023-06-05T00:16:30;96884.09;;;17.74;77.54
75196;BME280;63773;42.282;22.782;2023-06-05T00:18:56;96895.56;;;17.86;77.28
75196;BME280;63773;42.282;22.782;2023-06-05T00:21:22;96862.16;;;17.77;77.35
75196;BME280;63773;42.282;22.782;2023-06-05T00:23:50;96805.91;;;17.40;77.34
75196;BME280;63773;42.282;22.782;2023-06-05T00:26:15;96889.63;;;17.74;77.90
75196;BME280;63773;42.282;22.782;2023-06-05T00:28:41;96885.16;;;17.78;77.09
75196;BME280;63773;42.282;22.782;2023-06-05T00:31:06;96874.94;;;17.73;77.21
75196;BME280;63773;42.282;22.782;2023-06-05T00:33:32;96895.00;;;17.84;76.79
75196;BME280;63773;42.282;22.782;2023-06-05T00:35:57;96888.44;;;17.80;76.82
75196;BME280;63773;42.282;22.782;2023-06-05T00:38:23;96893.38;;;17.83;77.18
75196;BME280;63773;42.282;22.782;2023-06-05T00:40:48;96887.59;;;17.98;76.83
75196;BME280;63773;42.282;22.782;2023-06-05T00:43:14;96880.53;;;17.92;76.88
75196;BME280;63773;42.282;22.782;2023-06-05T00:45:39;96877.66;;;17.97;76.44
75196;BME280;63773;42.282;22.782;2023-06-05T00:48:05;96873.75;;;17.98;76.81
75196;BME280;63773;42.282;22.782;2023-06-05T00:50:32;96869.28;;;18.02;76.54
75196;BME280;63773;42.282;22.782;2023-06-05T00:52:58;96876.28;;;17.76;77.75
75196;BME280;63773;42.282;22.782;2023-06-05T00:55:26;96870.63;;;17.86;76.98
75196;BME280;63773;42.282;22.782;2023-06-05T00:57:52;96860.38;;;17.86;76.62
75196;BME280;63773;42.282;22.782;2023-06-05T01:00:19;96865.44;;;17.61;77.36
75196;BME280;63773;42.282;22.782;2023-06-05T01:02:45;96856.63;;;17.35;78.20
75196;BME280;63773;42.282;22.782;2023-06-05T01:05:11;96861.16;;;17.26;78.70
75196;BME280;63773;42.282;22.782;2023-06-05T01:07:38;96870.63;;;17.44;78.38
75196;BME280;63773;42.282;22.782;2023-06-05T01:10:05;96848.59;;;17.33;77.95
75196;BME280;63773;42.282;22.782;2023-06-05T01:12:50;96871.91;;;17.51;77.48
75196;BME280;63773;42.282;22.782;2023-06-05T01:15:19;96861.75;;;17.42;77.34
75196;BME280;63773;42.282;22.782;2023-06-05T01:17:54;96866.78;;;17.40;78.06
75196;BME280;63773;42.282;22.782;2023-06-05T01:20:22;96870.78;;;17.52;77.37
75196;BME280;63773;42.282;22.782;2023-06-05T01:22:49;96878.16;;;17.62;77.24
75196;BME280;63773;42.282;22.782;2023-06-05T01:25:17;96876.97;;;17.68;76.99
75196;BME280;63773;42.282;22.782;2023-06-05T01:28:07;96872.50;;;17.72;76.70
75196;BME280;63773;42.282;22.782;2023-06-05T01:35:30;96852.00;;;17.92;76.42
75196;BME280;63773;42.282;22.782;2023-06-05T01:37:59;96851.44;;;17.89;76.49
75196;BME280;63773;42.282;22.782;2023-06-05T01:40:29;96855.03;;;17.90;76.34
75196;BME280;63773;42.282;22.782;2023-06-05T01:42:56;96825.56;;;17.80;75.66
75196;BME280;63773;42.282;22.782;2023-06-05T01:45:23;96809.19;;;17.65;76.61
75196;BME280;63773;42.282;22.782;2023-06-05T01:47:49;96851.09;;;17.96;76.13
75196;BME280;63773;42.282;22.782;2023-06-05T01:50:15;96846.66;;;17.95;76.20
75196;BME280;63773;42.282;22.782;2023-06-05T01:52:41;96849.66;;;17.99;75.92
75196;BME280;63773;42.282;22.782;2023-06-05T01:55:07;96846.59;;;18.00;75.97
75196;BME280;63773;42.282;22.782;2023-06-05T01:57:40;96848.69;;;17.89;76.94
75196;BME280;63773;42.282;22.782;2023-06-05T02:00:07;96853.78;;;18.01;76.45
75196;BME280;63773;42.282;22.782;2023-06-05T02:02:45;96850.03;;;18.11;76.33
75196;BME280;63773;42.282;22.782;2023-06-05T02:05:13;96831.56;;;17.87;76.46
75196;BME280;63773;42.282;22.782;2023-06-05T02:07:41;96846.75;;;17.90;76.87
75196;BME280;63773;42.282;22.782;2023-06-05T02:10:07;96846.16;;;17.93;76.30
75196;BME280;63773;42.282;22.782;2023-06-05T02:12:33;96840.84;;;17.97;76.29
75196;BME280;63773;42.282;22.782;2023-06-05T02:15:00;96839.50;;;17.94;75.63
75196;BME280;63773;42.282;22.782;2023-06-05T02:17:25;96827.31;;;17.53;77.62
75196;BME280;63773;42.282;22.782;2023-06-05T02:19:51;96844.22;;;17.75;77.22
75196;BME280;63773;42.282;22.782;2023-06-05T02:22:17;96848.91;;;17.93;76.44
75196;BME280;63773;42.282;22.782;2023-06-05T02:24:43;96836.72;;;17.94;76.21
75196;BME280;63773;42.282;22.782;2023-06-05T02:27:09;96849.66;;;17.99;76.23
75196;BME280;63773;42.282;22.782;2023-06-05T02:29:36;96846.88;;;17.99;75.86
75196;BME280;63773;42.282;22.782;2023-06-05T02:32:05;96804.41;;;17.71;75.91
75196;BME280;63773;42.282;22.782;2023-06-05T02:34:31;96851.00;;;18.01;76.18
75196;BME280;63773;42.282;22.782;2023-06-05T02:36:58;96802.69;;;17.75;76.60
75196;BME280;63773;42.282;22.782;2023-06-05T02:39:23;96846.22;;;18.07;76.23
75196;BME280;63773;42.282;22.782;2023-06-05T02:41:48;96846.16;;;18.12;74.61
75196;BME280;63773;42.282;22.782;2023-06-05T02:44:14;96865.09;;;18.05;75.37
75196;BME280;63773;42.282;22.782;2023-06-05T02:46:40;96856.06;;;17.57;78.12
75196;BME280;63773;42.282;22.782;2023-06-05T02:49:05;96853.53;;;17.37;78.39
75196;BME280;63773;42.282;22.782;2023-06-05T02:51:31;96853.91;;;17.06;78.99
75196;BME280;63773;42.282;22.782;2023-06-05T02:53:56;96858.81;;;16.86;79.87
75196;BME280;63773;42.282;22.782;2023-06-05T02:56:22;96858.25;;;16.89;79.71
75196;BME280;63773;42.282;22.782;2023-06-05T02:58:51;96824.19;;;16.69;79.83
75196;BME280;63773;42.282;22.782;2023-06-05T03:01:17;96847.31;;;17.02;78.95
75196;BME280;63773;42.282;22.782;2023-06-05T03:03:42;96858.31;;;16.84;79.99
75196;BME280;63773;42.282;22.782;2023-06-05T03:06:07;96744.91;;;16.36;79.56
75196;BME280;63773;42.282;22.782;2023-06-05T03:08:34;96860.38;;;17.20;79.00
75196;BME280;63773;42.282;22.782;2023-06-05T03:11:04;96852.50;;;17.09;78.92
75196;BME280;63773;42.282;22.782;2023-06-05T03:13:30;96854.06;;;17.39;77.98
75196;BME280;63773;42.282;22.782;2023-06-05T03:15:57;96869.84;;;17.38;78.21
75196;BME280;63773;42.282;22.782;2023-06-05T03:18:24;96859.34;;;17.59;76.84
75196;BME280;63773;42.282;22.782;2023-06-05T03:20:50;96861.53;;;17.62;77.34
75196;BME280;63773;42.282;22.782;2023-06-05T03:23:16;96867.75;;;17.54;77.06
75196;BME280;63773;42.282;22.782;2023-06-05T03:25:42;96865.44;;;17.61;77.18
75196;BME280;63773;42.282;22.782;2023-06-05T03:28:07;96861.78;;;17.65;76.98
75196;BME280;63773;42.282;22.782;2023-06-05T03:30:33;96869.50;;;17.87;76.98
75196;BME280;63773;42.282;22.782;2023-06-05T03:32:58;96856.84;;;18.00;76.08
75196;BME280;63773;42.282;22.782;2023-06-05T03:35:24;96855.34;;;17.88;76.73
75196;BME280;63773;42.282;22.782;2023-06-05T03:37:49;96835.28;;;17.59;77.71
75196;BME280;63773;42.282;22.782;2023-06-05T03:40:14;96868.00;;;17.76;78.05
75196;BME280;63773;42.282;22.782;2023-06-05T03:42:40;96864.84;;;18.01;77.02
75196;BME280;63773;42.282;22.782;2023-06-05T03:45:06;96860.28;;;18.10;77.25
75196;BME280;63773;42.282;22.782;2023-06-05T03:47:32;96869.19;;;18.26;76.66
75196;BME280;63773;42.282;22.782;2023-06-05T03:49:59;96866.13;;;18.27;76.71
75196;BME280;63773;42.282;22.782;2023-06-05T03:52:25;96874.44;;;18.09;77.15
75196;BME280;63773;42.282;22.782;2023-06-05T03:58:14;96866.56;;;18.16;77.09
75196;BME280;63773;42.282;22.782;2023-06-05T04:00:44;96857.84;;;18.09;76.95
75196;BME280;63773;42.282;22.782;2023-06-05T04:03:11;96867.03;;;18.04;76.96
75196;BME280;63773;42.282;22.782;2023-06-05T04:05:37;96874.94;;;18.29;76.82
75196;BME280;63773;42.282;22.782;2023-06-05T04:08:03;96867.31;;;18.40;76.36
75196;BME280;63773;42.282;22.782;2023-06-05T04:10:29;96866.66;;;18.48;76.07
75196;BME280;63773;42.282;22.782;2023-06-05T04:12:55;96847.16;;;18.34;75.88
75196;BME280;63773;42.282;22.782;2023-06-05T04:15:21;96869.72;;;18.28;76.24
75196;BME280;63773;42.282;22.782;2023-06-05T04:17:47;96867.69;;;18.33;76.64
75196;BME280;63773;42.282;22.782;2023-06-05T04:20:12;96864.81;;;18.38;75.47
75196;BME280;63773;42.282;22.782;2023-06-05T04:22:41;96874.19;;;18.61;75.16
75196;BME280;63773;42.282;22.782;2023-06-05T04:25:07;96872.66;;;18.69;74.96
75196;BME280;63773;42.282;22.782;2023-06-05T04:27:33;96872.38;;;18.52;74.94
75196;BME280;63773;42.282;22.782;2023-06-05T04:29:58;96872.22;;;18.43;75.48
75196;BME280;63773;42.282;22.782;2023-06-05T04:32:24;96848.56;;;18.32;75.88
75196;BME280;63773;42.282;22.782;2023-06-05T04:34:50;96849.16;;;18.48;75.19
75196;BME280;63773;42.282;22.782;2023-06-05T04:37:17;96873.09;;;18.76;75.05
75196;BME280;63773;42.282;22.782;2023-06-05T04:39:43;96873.22;;;18.84;74.83
75196;BME280;63773;42.282;22.782;2023-06-05T04:42:08;96871.06;;;18.81;74.55
75196;BME280;63773;42.282;22.782;2023-06-05T04:44:34;96868.25;;;18.68;75.65
75196;BME280;63773;42.282;22.782;2023-06-05T04:46:59;96871.41;;;18.61;75.02
75196;BME280;63773;42.282;22.782;2023-06-05T04:49:25;96865.47;;;18.68;74.98
75196;BME280;63773;42.282;22.782;2023-06-05T04:51:51;96873.47;;;18.69;74.17
75196;BME280;63773;42.282;22.782;2023-06-05T04:54:18;96876.97;;;18.75;74.09
75196;BME280;63773;42.282;22.782;2023-06-05T04:56:44;96864.88;;;18.71;74.28
75196;BME280;63773;42.282;22.782;2023-06-05T04:59:10;96863.56;;;18.82;73.37
75196;BME280;63773;42.282;22.782;2023-06-05T05:01:36;96857.66;;;18.70;73.29
75196;BME280;63773;42.282;22.782;2023-06-05T05:04:01;96849.72;;;18.63;74.23
75196;BME280;63773;42.282;22.782;2023-06-05T05:06:27;96853.47;;;18.86;73.37
75196;BME280;63773;42.282;22.782;2023-06-05T05:08:52;96846.25;;;18.71;73.96
75196;BME280;63773;42.282;22.782;2023-06-05T05:11:19;96841.41;;;18.63;73.80
75196;BME280;63773;42.282;22.782;2023-06-05T05:13:45;96873.72;;;18.86;74.45
75196;BME280;63773;42.282;22.782;2023-06-05T05:16:10;96860.41;;;19.02;74.13
75196;BME280;63773;42.282;22.782;2023-06-05T05:18:42;96868.31;;;19.09;73.88
75196;BME280;63773;42.282;22.782;2023-06-05T05:21:08;96864.81;;;19.03;73.70
75196;BME280;63773;42.282;22.782;2023-06-05T05:23:34;96863.81;;;19.26;74.09
75196;BME280;63773;42.282;22.782;2023-06-05T05:26:00;96854.44;;;19.22;73.13
75196;BME280;63773;42.282;22.782;2023-06-05T05:28:25;96859.31;;;19.44;72.45
75196;BME280;63773;42.282;22.782;2023-06-05T05:30:51;96863.44;;;19.46;71.52
75196;BME280;63773;42.282;22.782;2023-06-05T05:33:17;96864.53;;;19.59;72.30
75196;BME280;63773;42.282;22.782;2023-06-05T05:35:43;96859.31;;;19.57;72.10
75196;BME280;63773;42.282;22.782;2023-06-05T05:38:09;96838.84;;;19.40;71.10
75196;BME280;63773;42.282;22.782;2023-06-05T05:40:35;96854.56;;;19.72;70.58
75196;BME280;63773;42.282;22.782;2023-06-05T05:43:00;96848.03;;;19.90;69.78
75196;BME280;63773;42.282;22.782;2023-06-05T05:45:25;96853.13;;;19.74;71.12
75196;BME280;63773;42.282;22.782;2023-06-05T05:47:51;96852.78;;;19.76;69.80
75196;BME280;63773;42.282;22.782;2023-06-05T05:50:16;96855.75;;;19.93;69.64
75196;BME280;63773;42.282;22.782;2023-06-05T05:52:41;96850.25;;;20.01;68.04
75196;BME280;63773;42.282;22.782;2023-06-05T05:55:09;96850.81;;;19.90;67.46
75196;BME280;63773;42.282;22.782;2023-06-05T05:57:34;96843.50;;;19.94;69.06
75196;BME280;63773;42.282;22.782;2023-06-05T06:00:00;96855.81;;;20.01;68.90
75196;BME280;63773;42.282;22.782;2023-06-05T06:02:26;96823.84;;;19.54;69.08
75196;BME280;63773;42.282;22.782;2023-06-05T06:04:51;96846.09;;;19.90;68.52
75196;BME280;63773;42.282;22.782;2023-06-05T06:07:16;96853.13;;;19.74;68.00
75196;BME280;63773;42.282;22.782;2023-06-05T06:09:42;96854.88;;;19.56;69.34
75196;BME280;63773;42.282;22.782;2023-06-05T06:12:09;96858.47;;;19.57;69.01
75196;BME280;63773;42.282;22.782;2023-06-05T06:14:35;96864.72;;;19.76;69.33
75196;BME280;63773;42.282;22.782;2023-06-05T06:17:00;96866.78;;;19.71;69.34
75196;BME280;63773;42.282;22.782;2023-06-05T06:19:27;96855.75;;;19.93;68.86
75196;BME280;63773;42.282;22.782;2023-06-05T06:21:54;96866.28;;;20.18;68.79
75196;BME280;63773;42.282;22.782;2023-06-05T06:24:20;96861.66;;;20.27;67.82
75196;BME280;63773;42.282;22.782;2023-06-05T06:26:46;96853.59;;;19.90;67.75
75196;BME280;63773;42.282;22.782;2023-06-05T06:29:19;96860.84;;;20.13;69.27
75196;BME280;63773;42.282;22.782;2023-06-05T06:31:45;96865.81;;;20.02;66.77
75196;BME280;63773;42.282;22.782;2023-06-05T06:34:11;96865.25;;;20.28;67.28
75196;BME280;63773;42.282;22.782;2023-06-05T06:36:37;96861.28;;;20.06;67.21
75196;BME280;63773;42.282;22.782;2023-06-05T06:39:08;96876.59;;;20.04;68.55
75196;BME280;63773;42.282;22.782;2023-06-05T06:41:35;96876.44;;;20.36;67.06
75196;BME280;63773;42.282;22.782;2023-06-05T06:44:01;96869.91;;;20.54;66.58
75196;BME280;63773;42.282;22.782;2023-06-05T06:46:27;96849.47;;;20.01;68.57
75196;BME280;63773;42.282;22.782;2023-06-05T06:48:52;96871.16;;;20.70;66.39
75196;BME280;63773;42.282;22.782;2023-06-05T06:51:18;96876.13;;;20.24;67.34
75196;BME280;63773;42.282;22.782;2023-06-05T06:53:43;96832.59;;;18.61;70.54
75196;BME280;63773;42.282;22.782;2023-06-05T06:56:09;96859.69;;;19.37;69.88
75196;BME280;63773;42.282;22.782;2023-06-05T06:58:35;96852.63;;;20.08;67.88
75196;BME280;63773;42.282;22.782;2023-06-05T07:01:02;96855.59;;;20.69;66.40
75196;BME280;63773;42.282;22.782;2023-06-05T07:03:28;96875.97;;;21.40;64.54
75196;BME280;63773;42.282;22.782;2023-06-05T07:05:53;96868.50;;;21.58;62.93
75196;BME280;63773;42.282;22.782;2023-06-05T07:08:19;96871.84;;;21.07;65.39
75196;BME280;63773;42.282;22.782;2023-06-05T07:10:45;96837.72;;;20.40;65.61
75196;BME280;63773;42.282;22.782;2023-06-05T07:13:10;96868.31;;;20.40;66.40
75196;BME280;63773;42.282;22.782;2023-06-05T07:15:36;96857.81;;;20.59;65.85
75196;BME280;63773;42.282;22.782;2023-06-05T07:18:01;96863.75;;;20.44;66.64
75196;BME280;63773;42.282;22.782;2023-06-05T07:20:26;96861.00;;;20.30;68.11
75196;BME280;63773;42.282;22.782;2023-06-05T07:22:52;96860.97;;;20.44;66.82
75196;BME280;63773;42.282;22.782;2023-06-05T07:25:17;96862.16;;;20.73;66.14
75196;BME280;63773;42.282;22.782;2023-06-05T07:27:46;96854.56;;;20.88;64.75
75196;BME280;63773;42.282;22.782;2023-06-05T07:30:12;96872.38;;;21.09;65.15
75196;BME280;63773;42.282;22.782;2023-06-05T07:32:41;96857.13;;;20.53;66.05
75196;BME280;63773;42.282;22.782;2023-06-05T07:35:08;96863.22;;;20.86;65.50
75196;BME280;63773;42.282;22.782;2023-06-05T07:37:34;96864.59;;;20.97;64.55
75196;BME280;63773;42.282;22.782;2023-06-05T07:40:00;96871.09;;;21.54;62.60
75196;BME280;63773;42.282;22.782;2023-06-05T07:42:25;96874.66;;;21.38;62.80
75196;BME280;63773;42.282;22.782;2023-06-05T07:44:51;96855.69;;;21.48;61.32
75196;BME280;63773;42.282;22.782;2023-06-05T07:47:16;96854.31;;;21.85;61.14
75196;BME280;63773;42.282;22.782;2023-06-05T07:49:42;96857.81;;;22.16;60.97
75196;BME280;63773;42.282;22.782;2023-06-05T07:52:07;96858.50;;;22.39;59.43
75196;BME280;63773;42.282;22.782;2023-06-05T07:54:33;96862.28;;;22.26;59.57
75196;BME280;63773;42.282;22.782;2023-06-05T07:56:58;96854.22;;;22.76;59.11
75196;BME280;63773;42.282;22.782;2023-06-05T07:59:24;96872.84;;;23.18;59.03
75196;BME280;63773;42.282;22.782;2023-06-05T08:01:53;96873.94;;;23.43;57.83
75196;BME280;63773;42.282;22.782;2023-06-05T08:04:19;96871.34;;;23.29;59.69
75196;BME280;63773;42.282;22.782;2023-06-05T08:06:45;96865.13;;;23.24;58.64
75196;BME280;63773;42.282;22.782;2023-06-05T08:09:11;96869.59;;;23.16;59.08
75196;BME280;63773;42.282;22.782;2023-06-05T08:11:38;96873.88;;;23.05;58.46
75196;BME280;63773;42.282;22.782;2023-06-05T08:14:07;96877.69;;;23.55;56.57
75196;BME280;63773;42.282;22.782;2023-06-05T08:16:34;96874.56;;;23.48;56.48
75196;BME280;63773;42.282;22.782;2023-06-05T08:18:59;96852.97;;;23.28;56.81
75196;BME280;63773;42.282;22.782;2023-06-05T08:21:25;96867.91;;;23.24;57.96
75196;BME280;63773;42.282;22.782;2023-06-05T08:23:50;96867.03;;;24.07;57.00
75196;BME280;63773;42.282;22.782;2023-06-05T08:26:18;96865.75;;;23.76;56.27
75196;BME280;63773;42.282;22.782;2023-06-05T08:28:45;96864.88;;;23.46;54.88
75196;BME280;63773;42.282;22.782;2023-06-05T08:31:10;96861.03;;;23.68;56.24
75196;BME280;63773;42.282;22.782;2023-06-05T08:33:37;96855.13;;;24.40;54.63
75196;BME280;63773;42.282;22.782;2023-06-05T08:36:03;96853.41;;;24.47;55.15
75196;BME280;63773;42.282;22.782;2023-06-05T08:38:29;96856.78;;;24.41;54.91
75196;BME280;63773;42.282;22.782;2023-06-05T08:41:04;96845.56;;;24.61;52.56
75196;BME280;63773;42.282;22.782;2023-06-05T08:43:38;96839.00;;;25.11;52.32
75196;BME280;63773;42.282;22.782;2023-06-05T08:46:05;96835.25;;;25.64;53.90
75196;BME280;63773;42.282;22.782;2023-06-05T08:48:31;96839.00;;;25.56;50.09
75196;BME280;63773;42.282;22.782;2023-06-05T08:50:58;96824.72;;;26.21;50.93
75196;BME280;63773;42.282;22.782;2023-06-05T08:53:24;96821.34;;;25.55;48.80
75196;BME280;63773;42.282;22.782;2023-06-05T08:55:54;96833.72;;;25.91;50.30
75196;BME280;63773;42.282;22.782;2023-06-05T08:58:21;96831.88;;;25.83;49.60
75196;BME280;63773;42.282;22.782;2023-06-05T09:00:47;96831.38;;;26.17;47.29
75196;BME280;63773;42.282;22.782;2023-06-05T09:03:14;96816.41;;;26.13;48.07
75196;BME280;63773;42.282;22.782;2023-06-05T09:05:40;96793.91;;;26.65;45.60
75196;BME280;63773;42.282;22.782;2023-06-05T09:08:06;96831.09;;;26.74;47.39
75196;BME280;63773;42.282;22.782;2023-06-05T09:10:32;96797.81;;;26.88;45.59
75196;BME280;63773;42.282;22.782;2023-06-05T09:12:58;96833.22;;;27.36;46.22
75196;BME280;63773;42.282;22.782;2023-06-05T09:15:27;96828.72;;;27.47;47.81
75196;BME280;63773;42.282;22.782;2023-06-05T09:18:13;96813.69;;;27.71;45.27
75196;BME280;63773;42.282;22.782;2023-06-05T09:20:44;96802.41;;;27.39;45.98
75196;BME280;63773;42.282;22.782;2023-06-05T09:23:26;96816.22;;;27.44;43.33
75196;BME280;63773;42.282;22.782;2023-06-05T09:25:53;96790.16;;;26.73;44.17
75196;BME280;63773;42.282;22.782;2023-06-05T09:28:18;96809.59;;;26.93;45.43
75196;BME280;63773;42.282;22.782;2023-06-05T09:31:04;96808.16;;;27.74;46.10
75196;BME280;63773;42.282;22.782;2023-06-05T09:33:31;96809.13;;;27.66;44.91
75196;BME280;63773;42.282;22.782;2023-06-05T09:36:11;96804.69;;;26.90;45.30
75196;BME280;63773;42.282;22.782;2023-06-05T09:38:39;96804.69;;;26.35;46.67
75196;BME280;63773;42.282;22.782;2023-06-05T09:41:06;96803.09;;;26.50;47.31
75196;BME280;63773;42.282;22.782;2023-06-05T09:43:32;96792.84;;;26.69;46.87
75196;BME280;63773;42.282;22.782;2023-06-05T09:45:58;96779.44;;;26.23;46.53
75196;BME280;63773;42.282;22.782;2023-06-05T09:48:23;96783.59;;;26.41;47.55
75196;BME280;63773;42.282;22.782;2023-06-05T09:50:51;96803.25;;;26.97;47.15
75196;BME280;63773;42.282;22.782;2023-06-05T09:53:19;96796.13;;;26.44;47.66
75196;BME280;63773;42.282;22.782;2023-06-05T09:55:45;96799.84;;;27.19;47.17
75196;BME280;63773;42.282;22.782;2023-06-05T09:58:12;96797.34;;;26.58;48.54
75196;BME280;63773;42.282;22.782;2023-06-05T10:00:40;96761.75;;;26.90;48.09
75196;BME280;63773;42.282;22.782;2023-06-05T10:03:14;96779.19;;;27.11;48.89
75196;BME280;63773;42.282;22.782;2023-06-05T10:05:41;96778.53;;;27.02;46.01
75196;BME280;63773;42.282;22.782;2023-06-05T10:08:08;96785.53;;;27.08;47.07
75196;BME280;63773;42.282;22.782;2023-06-05T10:10:34;96770.03;;;27.61;45.69
75196;BME280;63773;42.282;22.782;2023-06-05T10:13:00;96777.75;;;27.80;45.85
75196;BME280;63773;42.282;22.782;2023-06-05T10:15:27;96776.56;;;27.34;47.12
75196;BME280;63773;42.282;22.782;2023-06-05T10:17:53;96747.28;;;26.32;48.66
75196;BME280;63773;42.282;22.782;2023-06-05T10:20:21;96744.03;;;26.74;48.69
75196;BME280;63773;42.282;22.782;2023-06-05T10:22:47;96772.31;;;27.40;47.94
75196;BME280;63773;42.282;22.782;2023-06-05T10:25:15;96768.66;;;27.71;47.51
75196;BME280;63773;42.282;22.782;2023-06-05T10:31:06;96760.53;;;27.50;48.31
75196;BME280;63773;42.282;22.782;2023-06-05T10:39:28;96741.75;;;28.04;47.19
75196;BME280;63773;42.282;22.782;2023-06-05T10:41:55;96738.94;;;28.43;45.02
75196;BME280;63773;42.282;22.782;2023-06-05T10:44:38;96741.81;;;28.85;43.84
75196;BME280;63773;42.282;22.782;2023-06-05T10:52:49;96726.69;;;28.93;44.56
75196;BME280;63773;42.282;22.782;2023-06-05T10:55:15;96713.38;;;29.61;44.32
75196;BME280;63773;42.282;22.782;2023-06-05T11:00:28;96702.25;;;29.98;39.40
75196;BME280;63773;42.282;22.782;2023-06-05T11:02:54;96707.22;;;30.05;41.29
75196;BME280;63773;42.282;22.782;2023-06-05T11:05:20;96702.94;;;28.71;43.72
75196;BME280;63773;42.282;22.782;2023-06-05T11:07:46;96706.44;;;29.29;43.79
75196;BME280;63773;42.282;22.782;2023-06-05T11:10:14;96705.03;;;29.95;41.61
75196;BME280;63773;42.282;22.782;2023-06-05T11:15:15;96699.59;;;30.09;42.59
75196;BME280;63773;42.282;22.782;2023-06-05T11:17:42;96675.50;;;30.18;42.45
75196;BME280;63773;42.282;22.782;2023-06-05T11:27:59;96712.41;;;29.50;44.12
75196;BME280;63773;42.282;22.782;2023-06-05T11:30:33;96710.34;;;29.47;43.16
75196;BME280;63773;42.282;22.782;2023-06-05T11:33:07;96702.28;;;29.72;44.30
75196;BME280;63773;42.282;22.782;2023-06-05T11:35:34;96709.91;;;29.98;44.44
75196;BME280;63773;42.282;22.782;2023-06-05T11:40:36;96699.06;;;29.73;43.07
75196;BME280;63773;42.282;22.782;2023-06-05T11:43:11;96700.06;;;29.36;42.13
75196;BME280;63773;42.282;22.782;2023-06-05T11:45:38;96686.28;;;29.31;42.92
75196;BME280;63773;42.282;22.782;2023-06-05T11:48:13;96694.94;;;29.67;43.53
75196;BME280;63773;42.282;22.782;2023-06-05T11:50:55;96683.53;;;28.47;45.31
75196;BME280;63773;42.282;22.782;2023-06-05T11:53:21;96671.38;;;28.24;44.93
75196;BME280;63773;42.282;22.782;2023-06-05T11:55:47;96681.44;;;28.63;47.10
75196;BME280;63773;42.282;22.782;2023-06-05T11:58:28;96675.81;;;28.63;46.48
75196;BME280;63773;42.282;22.782;2023-06-05T12:01:23;96676.50;;;28.79;44.84
75196;BME280;63773;42.282;22.782;2023-06-05T12:04:04;96667.44;;;29.12;46.33
75196;BME280;63773;42.282;22.782;2023-06-05T12:06:30;96654.34;;;28.78;46.16
75196;BME280;63773;42.282;22.782;2023-06-05T12:09:09;96673.84;;;28.86;44.66
75196;BME280;63773;42.282;22.782;2023-06-05T12:11:36;96650.47;;;28.44;47.00
75196;BME280;63773;42.282;22.782;2023-06-05T12:14:03;96654.22;;;28.51;45.11
75196;BME280;63773;42.282;22.782;2023-06-05T12:16:36;96648.28;;;28.15;46.28
75196;BME280;63773;42.282;22.782;2023-06-05T12:19:11;96640.31;;;27.82;46.92
75196;BME280;63773;42.282;22.782;2023-06-05T12:21:37;96619.16;;;27.69;46.57
75196;BME280;63773;42.282;22.782;2023-06-05T12:24:04;96643.69;;;28.06;46.37
75196;BME280;63773;42.282;22.782;2023-06-05T12:26:52;96637.69;;;28.69;46.60
75196;BME280;63773;42.282;22.782;2023-06-05T12:29:19;96633.94;;;28.84;45.13
75196;BME280;63773;42.282;22.782;2023-06-05T12:31:45;96639.28;;;28.05;46.60
75196;BME280;63773;42.282;22.782;2023-06-05T12:34:11;96622.31;;;27.67;47.37
75196;BME280;63773;42.282;22.782;2023-06-05T12:36:39;96635.53;;;27.47;48.52
75196;BME280;63773;42.282;22.782;2023-06-05T12:39:05;96633.50;;;27.64;49.80
75196;BME280;63773;42.282;22.782;2023-06-05T12:41:31;96633.78;;;27.08;52.69
75196;BME280;63773;42.282;22.782;2023-06-05T12:44:01;96625.97;;;27.02;52.96
75196;BME280;63773;42.282;22.782;2023-06-05T12:46:27;96623.78;;;27.61;52.00
75196;BME280;63773;42.282;22.782;2023-06-05T12:48:53;96614.34;;;27.34;51.30
75196;BME280;63773;42.282;22.782;2023-06-05T12:51:19;96618.31;;;27.49;51.18
75196;BME280;63773;42.282;22.782;2023-06-05T12:53:44;96607.63;;;26.88;54.44
75196;BME280;63773;42.282;22.782;2023-06-05T12:56:09;96587.94;;;26.88;54.14
75196;BME280;63773;42.282;22.782;2023-06-05T12:58:36;96599.09;;;26.85;54.45
75196;BME280;63773;42.282;22.782;2023-06-05T13:01:01;96585.13;;;26.57;54.62
75196;BME280;63773;42.282;22.782;2023-06-05T13:03:27;96608.06;;;27.06;54.60
75196;BME280;63773;42.282;22.782;2023-06-05T13:05:53;96600.28;;;27.34;54.25
75196;BME280;63773;42.282;22.782;2023-06-05T13:08:19;96578.72;;;27.23;53.17
75196;BME280;63773;42.282;22.782;2023-06-05T13:10:44;96555.22;;;27.31;52.34
75196;BME280;63773;42.282;22.782;2023-06-05T13:13:09;96593.03;;;27.49;52.14
75196;BME280;63773;42.282;22.782;2023-06-05T13:15:35;96576.53;;;28.05;50.92
75196;BME280;63773;42.282;22.782;2023-06-05T13:18:00;96597.59;;;28.15;49.52
75196;BME280;63773;42.282;22.782;2023-06-05T13:20:26;96595.09;;;28.10;50.41
75196;BME280;63773;42.282;22.782;2023-06-05T13:22:52;96595.69;;;27.61;49.23
75196;BME280;63773;42.282;22.782;2023-06-05T13:25:18;96564.72;;;27.99;49.36
75196;BME280;63773;42.282;22.782;2023-06-05T13:27:43;96575.78;;;28.73;47.77
75196;BME280;63773;42.282;22.782;2023-06-05T13:30:09;96559.69;;;28.50;49.07